sensor_id;sensor_type;location;lat;lon;timestamp;P1;durP1;ratioP1;P2;durP2;ratioP2
77453;SDS011;66538;53.150;18.160;2024-02-28T00:00:05;27.90;;;11.00;;
77453;SDS011;66538;53.150;18.160;2024-02-28T00:02:33;25.50;;;10.60;;
77453;SDS011;66538;53.150;18.160;2024-02-28T00:04:59;26.60;;;11.00;;
77453;SDS011;66538;53.150;18.160;2024-02-28T00:07:26;22.20;;;10.20;;
77453;SDS011;66538;53.150;18.160;2024-02-28T00:09:53;28.90;;;10.40;;
77453;SDS011;66538;53.150;18.160;2024-02-28T00:12:23;23.60;;;9.60;;
77453;SDS011;66538;53.150;18.160;2024-02-28T00:14:53;18.90;;;8.10;;
77453;SDS011;66538;53.150;18.160;2024-02-28T00:17:20;22.50;;;8.40;;
77453;SDS011;66538;53.150;18.160;2024-02-28T00:19:46;23.70;;;8.70;;
77453;SDS011;66538;53.150;18.160;2024-02-28T00:22:13;21.30;;;9.10;;
77453;SDS011;66538;53.150;18.160;2024-02-28T00:24:40;24.40;;;9.60;;
77453;SDS011;66538;53.150;18.160;2024-02-28T00:27:07;24.20;;;9.10;;
77453;SDS011;66538;53.150;18.160;2024-02-28T00:29:33;26.10;;;10.80;;
77453;SDS011;66538;53.150;18.160;2024-02-28T00:32:00;25.90;;;10.00;;
77453;SDS011;66538;53.150;18.160;2024-02-28T00:34:27;21.80;;;9.30;;
77453;SDS011;66538;53.150;18.160;2024-02-28T00:36:53;22.90;;;9.60;;
77453;SDS011;66538;53.150;18.160;2024-02-28T00:39:20;27.50;;;10.10;;
77453;SDS011;66538;53.150;18.160;2024-02-28T00:41:46;22.40;;;9.00;;
77453;SDS011;66538;53.150;18.160;2024-02-28T00:44:13;24.00;;;9.60;;
77453;SDS011;66538;53.150;18.160;2024-02-28T00:46:40;25.80;;;9.90;;
77453;SDS011;66538;53.150;18.160;2024-02-28T00:49:06;24.40;;;9.80;;
77453;SDS011;66538;53.150;18.160;2024-02-28T00:51:33;20.70;;;8.70;;
77453;SDS011;66538;53.150;18.160;2024-02-28T00:54:00;24.00;;;10.90;;
77453;SDS011;66538;53.150;18.160;2024-02-28T00:56:26;22.20;;;9.40;;
77453;SDS011;66538;53.150;18.160;2024-02-28T00:58:53;20.90;;;8.10;;
77453;SDS011;66538;53.150;18.160;2024-02-28T01:01:20;24.80;;;8.60;;
77453;SDS011;66538;53.150;18.160;2024-02-28T01:03:47;25.00;;;9.80;;
77453;SDS011;66538;53.150;18.160;2024-02-28T01:06:13;21.30;;;8.40;;
77453;SDS011;66538;53.150;18.160;2024-02-28T01:08:42;26.90;;;10.20;;
77453;SDS011;66538;53.150;18.160;2024-02-28T01:11:09;24.00;;;9.50;;
77453;SDS011;66538;53.150;18.160;2024-02-28T01:13:36;24.70;;;9.70;;
77453;SDS011;66538;53.150;18.160;2024-02-28T01:16:03;21.30;;;8.00;;
77453;SDS011;66538;53.150;18.160;2024-02-28T01:18:30;18.10;;;7.00;;
77453;SDS011;66538;53.150;18.160;2024-02-28T01:20:58;24.80;;;10.00;;
77453;SDS011;66538;53.150;18.160;2024-02-28T01:23:25;19.20;;;7.90;;
77453;SDS011;66538;53.150;18.160;2024-02-28T01:25:52;24.60;;;10.10;;
77453;SDS011;66538;53.150;18.160;2024-02-28T01:28:19;23.20;;;8.80;;
77453;SDS011;66538;53.150;18.160;2024-02-28T01:30:45;25.10;;;9.00;;
77453;SDS011;66538;53.150;18.160;2024-02-28T01:33:12;26.10;;;8.20;;
77453;SDS011;66538;53.150;18.160;2024-02-28T01:35:40;23.50;;;8.60;;
77453;SDS011;66538;53.150;18.160;2024-02-28T01:38:07;24.80;;;8.80;;
77453;SDS011;66538;53.150;18.160;2024-02-28T01:40:33;26.20;;;9.20;;
77453;SDS011;66538;53.150;18.160;2024-02-28T01:43:07;23.20;;;8.90;;
77453;SDS011;66538;53.150;18.160;2024-02-28T01:45:34;26.30;;;9.30;;
77453;SDS011;66538;53.150;18.160;2024-02-28T01:48:02;24.40;;;8.70;;
77453;SDS011;66538;53.150;18.160;2024-02-28T01:50:29;20.40;;;7.50;;
77453;SDS011;66538;53.150;18.160;2024-02-28T01:52:56;25.90;;;9.20;;
77453;SDS011;66538;53.150;18.160;2024-02-28T01:55:23;22.70;;;8.50;;
77453;SDS011;66538;53.150;18.160;2024-02-28T01:57:51;21.90;;;8.00;;
77453;SDS011;66538;53.150;18.160;2024-02-28T02:00:19;22.50;;;8.40;;
77453;SDS011;66538;53.150;18.160;2024-02-28T02:02:47;21.50;;;7.90;;
77453;SDS011;66538;53.150;18.160;2024-02-28T02:05:14;19.10;;;8.20;;
77453;SDS011;66538;53.150;18.160;2024-02-28T02:07:42;20.50;;;7.20;;
77453;SDS011;66538;53.150;18.160;2024-02-28T02:10:09;16.90;;;7.30;;
77453;SDS011;66538;53.150;18.160;2024-02-28T02:12:38;24.20;;;8.20;;
77453;SDS011;66538;53.150;18.160;2024-02-28T02:15:05;21.30;;;8.10;;
77453;SDS011;66538;53.150;18.160;2024-02-28T02:17:32;22.70;;;7.90;;
77453;SDS011;66538;53.150;18.160;2024-02-28T02:19:58;23.50;;;8.60;;
77453;SDS011;66538;53.150;18.160;2024-02-28T02:22:31;22.80;;;8.50;;
77453;SDS011;66538;53.150;18.160;2024-02-28T02:25:02;16.70;;;6.30;;
77453;SDS011;66538;53.150;18.160;2024-02-28T02:27:30;23.20;;;8.80;;
77453;SDS011;66538;53.150;18.160;2024-02-28T02:29:56;23.60;;;7.90;;
77453;SDS011;66538;53.150;18.160;2024-02-28T02:32:23;19.40;;;6.70;;
77453;SDS011;66538;53.150;18.160;2024-02-28T02:34:50;22.40;;;9.10;;
77453;SDS011;66538;53.150;18.160;2024-02-28T02:37:17;25.10;;;9.00;;
77453;SDS011;66538;53.150;18.160;2024-02-28T02:39:43;26.90;;;9.90;;
77453;SDS011;66538;53.150;18.160;2024-02-28T02:42:10;31.40;;;10.80;;
77453;SDS011;66538;53.150;18.160;2024-02-28T02:44:40;22.50;;;9.20;;
77453;SDS011;66538;53.150;18.160;2024-02-28T02:47:06;27.80;;;9.00;;
77453;SDS011;66538;53.150;18.160;2024-02-28T02:49:33;24.40;;;7.70;;
77453;SDS011;66538;53.150;18.160;2024-02-28T02:51:59;21.70;;;8.60;;
77453;SDS011;66538;53.150;18.160;2024-02-28T02:54:26;23.80;;;8.60;;
77453;SDS011;66538;53.150;18.160;2024-02-28T02:56:53;26.00;;;9.60;;
77453;SDS011;66538;53.150;18.160;2024-02-28T02:59:19;26.30;;;8.90;;
77453;SDS011;66538;53.150;18.160;2024-02-28T03:01:48;30.00;;;10.30;;
77453;SDS011;66538;53.150;18.160;2024-02-28T03:04:16;22.90;;;8.80;;
77453;SDS011;66538;53.150;18.160;2024-02-28T03:06:43;22.90;;;8.60;;
77453;SDS011;66538;53.150;18.160;2024-02-28T03:09:09;27.60;;;8.70;;
77453;SDS011;66538;53.150;18.160;2024-02-28T03:11:36;19.70;;;6.90;;
77453;SDS011;66538;53.150;18.160;2024-02-28T03:14:02;18.40;;;6.50;;
77453;SDS011;66538;53.150;18.160;2024-02-28T03:16:29;26.20;;;10.30;;
77453;SDS011;66538;53.150;18.160;2024-02-28T03:18:56;28.60;;;8.80;;
77453;SDS011;66538;53.150;18.160;2024-02-28T03:21:23;28.60;;;9.50;;
77453;SDS011;66538;53.150;18.160;2024-02-28T03:23:49;30.00;;;10.30;;
77453;SDS011;66538;53.150;18.160;2024-02-28T03:26:17;26.10;;;10.00;;
77453;SDS011;66538;53.150;18.160;2024-02-28T03:28:43;29.70;;;10.10;;
77453;SDS011;66538;53.150;18.160;2024-02-28T03:31:10;30.10;;;9.80;;
77453;SDS011;66538;53.150;18.160;2024-02-28T03:33:36;25.70;;;10.10;;
77453;SDS011;66538;53.150;18.160;2024-02-28T03:36:03;25.20;;;9.40;;
77453;SDS011;66538;53.150;18.160;2024-02-28T03:38:30;25.30;;;9.00;;
77453;SDS011;66538;53.150;18.160;2024-02-28T03:40:57;23.10;;;8.50;;
77453;SDS011;66538;53.150;18.160;2024-02-28T03:43:23;25.90;;;9.80;;
77453;SDS011;66538;53.150;18.160;2024-02-28T03:45:50;24.10;;;9.90;;
77453;SDS011;66538;53.150;18.160;2024-02-28T03:48:16;25.10;;;10.60;;
77453;SDS011;66538;53.150;18.160;2024-02-28T03:50:43;27.20;;;9.70;;
77453;SDS011;66538;53.150;18.160;2024-02-28T03:53:10;27.90;;;10.00;;
77453;SDS011;66538;53.150;18.160;2024-02-28T03:55:36;23.40;;;10.40;;
77453;SDS011;66538;53.150;18.160;2024-02-28T03:58:04;25.40;;;9.00;;
77453;SDS011;66538;53.150;18.160;2024-02-28T04:00:33;25.50;;;10.20;;
77453;SDS011;66538;53.150;18.160;2024-02-28T04:03:00;30.00;;;10.90;;
77453;SDS011;66538;53.150;18.160;2024-02-28T04:05:26;24.50;;;9.70;;
77453;SDS011;66538;53.150;18.160;2024-02-28T04:07:53;28.40;;;9.40;;
77453;SDS011;66538;53.150;18.160;2024-02-28T04:10:20;27.80;;;10.10;;
77453;SDS011;66538;53.150;18.160;2024-02-28T04:12:47;30.60;;;10.80;;
77453;SDS011;66538;53.150;18.160;2024-02-28T04:15:14;27.50;;;9.90;;
77453;SDS011;66538;53.150;18.160;2024-02-28T04:17:40;24.30;;;8.80;;
77453;SDS011;66538;53.150;18.160;2024-02-28T04:20:08;30.80;;;11.50;;
77453;SDS011;66538;53.150;18.160;2024-02-28T04:22:38;30.60;;;11.00;;
77453;SDS011;66538;53.150;18.160;2024-02-28T04:25:05;25.50;;;9.60;;
77453;SDS011;66538;53.150;18.160;2024-02-28T04:27:34;26.00;;;9.20;;
77453;SDS011;66538;53.150;18.160;2024-02-28T04:30:02;22.00;;;8.30;;
77453;SDS011;66538;53.150;18.160;2024-02-28T04:32:29;27.00;;;9.70;;
77453;SDS011;66538;53.150;18.160;2024-02-28T04:34:56;23.50;;;9.70;;
77453;SDS011;66538;53.150;18.160;2024-02-28T04:37:22;27.40;;;9.60;;
77453;SDS011;66538;53.150;18.160;2024-02-28T04:39:49;24.70;;;9.70;;
77453;SDS011;66538;53.150;18.160;2024-02-28T04:42:16;22.10;;;7.90;;
77453;SDS011;66538;53.150;18.160;2024-02-28T04:44:43;24.50;;;9.20;;
77453;SDS011;66538;53.150;18.160;2024-02-28T04:47:09;21.40;;;9.00;;
77453;SDS011;66538;53.150;18.160;2024-02-28T04:49:36;22.70;;;9.30;;
77453;SDS011;66538;53.150;18.160;2024-02-28T04:52:05;25.30;;;10.10;;
77453;SDS011;66538;53.150;18.160;2024-02-28T04:54:33;21.60;;;8.20;;
77453;SDS011;66538;53.150;18.160;2024-02-28T04:57:00;23.90;;;8.00;;
77453;SDS011;66538;53.150;18.160;2024-02-28T04:59:27;26.00;;;9.30;;
77453;SDS011;66538;53.150;18.160;2024-02-28T05:01:53;19.20;;;7.60;;
77453;SDS011;66538;53.150;18.160;2024-02-28T05:04:20;23.80;;;8.50;;
77453;SDS011;66538;53.150;18.160;2024-02-28T05:06:47;24.60;;;9.10;;
77453;SDS011;66538;53.150;18.160;2024-02-28T05:09:14;23.90;;;9.40;;
77453;SDS011;66538;53.150;18.160;2024-02-28T05:11:40;27.10;;;8.40;;
77453;SDS011;66538;53.150;18.160;2024-02-28T05:14:08;23.20;;;8.80;;
77453;SDS011;66538;53.150;18.160;2024-02-28T05:16:37;21.50;;;9.10;;
77453;SDS011;66538;53.150;18.160;2024-02-28T05:19:03;23.90;;;8.80;;
77453;SDS011;66538;53.150;18.160;2024-02-28T05:21:30;23.30;;;8.50;;
77453;SDS011;66538;53.150;18.160;2024-02-28T05:23:57;22.10;;;9.10;;
77453;SDS011;66538;53.150;18.160;2024-02-28T05:26:24;25.60;;;8.60;;
77453;SDS011;66538;53.150;18.160;2024-02-28T05:28:51;25.30;;;9.20;;
77453;SDS011;66538;53.150;18.160;2024-02-28T05:31:22;24.50;;;9.70;;
77453;SDS011;66538;53.150;18.160;2024-02-28T05:33:53;24.10;;;8.50;;
77453;SDS011;66538;53.150;18.160;2024-02-28T05:36:23;19.20;;;7.70;;
77453;SDS011;66538;53.150;18.160;2024-02-28T05:38:51;18.70;;;8.00;;
77453;SDS011;66538;53.150;18.160;2024-02-28T05:41:18;20.20;;;8.00;;
77453;SDS011;66538;53.150;18.160;2024-02-28T05:43:46;21.80;;;9.20;;
77453;SDS011;66538;53.150;18.160;2024-02-28T05:46:14;22.70;;;8.20;;
77453;SDS011;66538;53.150;18.160;2024-02-28T05:48:41;15.80;;;6.50;;
77453;SDS011;66538;53.150;18.160;2024-02-28T05:51:10;21.40;;;7.80;;
77453;SDS011;66538;53.150;18.160;2024-02-28T05:53:37;16.20;;;7.20;;
77453;SDS011;66538;53.150;18.160;2024-02-28T05:56:07;17.10;;;6.90;;
77453;SDS011;66538;53.150;18.160;2024-02-28T05:58:42;19.80;;;8.00;;
77453;SDS011;66538;53.150;18.160;2024-02-28T06:01:10;20.70;;;7.80;;
77453;SDS011;66538;53.150;18.160;2024-02-28T06:03:38;23.30;;;8.50;;
77453;SDS011;66538;53.150;18.160;2024-02-28T06:06:05;19.70;;;7.30;;
77453;SDS011;66538;53.150;18.160;2024-02-28T06:08:39;16.60;;;6.90;;
77453;SDS011;66538;53.150;18.160;2024-02-28T06:11:07;18.70;;;7.00;;
77453;SDS011;66538;53.150;18.160;2024-02-28T06:13:34;17.90;;;7.30;;
77453;SDS011;66538;53.150;18.160;2024-02-28T06:16:00;16.30;;;7.40;;
77453;SDS011;66538;53.150;18.160;2024-02-28T06:18:28;20.80;;;8.10;;
77453;SDS011;66538;53.150;18.160;2024-02-28T06:20:56;16.40;;;6.70;;
77453;SDS011;66538;53.150;18.160;2024-02-28T06:23:23;19.50;;;7.10;;
77453;SDS011;66538;53.150;18.160;2024-02-28T06:25:50;18.80;;;7.80;;
77453;SDS011;66538;53.150;18.160;2024-02-28T06:28:17;22.70;;;7.80;;
77453;SDS011;66538;53.150;18.160;2024-02-28T06:30:44;31.70;;;11.10;;
77453;SDS011;66538;53.150;18.160;2024-02-28T06:33:13;22.10;;;8.30;;
77453;SDS011;66538;53.150;18.160;2024-02-28T06:35:40;22.50;;;8.40;;
77453;SDS011;66538;53.150;18.160;2024-02-28T06:38:07;26.30;;;9.40;;
77453;SDS011;66538;53.150;18.160;2024-02-28T06:40:34;34.40;;;11.50;;
77453;SDS011;66538;53.150;18.160;2024-02-28T06:43:01;24.40;;;8.90;;
77453;SDS011;66538;53.150;18.160;2024-02-28T06:45:27;25.10;;;8.90;;
77453;SDS011;66538;53.150;18.160;2024-02-28T06:47:54;24.60;;;8.60;;
77453;SDS011;66538;53.150;18.160;2024-02-28T06:50:21;26.00;;;10.60;;
77453;SDS011;66538;53.150;18.160;2024-02-28T06:52:47;24.30;;;8.80;;
77453;SDS011;66538;53.150;18.160;2024-02-28T06:55:14;22.10;;;8.70;;
77453;SDS011;66538;53.150;18.160;2024-02-28T06:57:41;21.90;;;8.10;;
77453;SDS011;66538;53.150;18.160;2024-02-28T07:00:09;24.40;;;9.30;;
77453;SDS011;66538;53.150;18.160;2024-02-28T07:02:45;28.10;;;8.60;;
77453;SDS011;66538;53.150;18.160;2024-02-28T07:05:12;27.80;;;10.10;;
77453;SDS011;66538;53.150;18.160;2024-02-28T07:07:38;26.70;;;9.80;;
77453;SDS011;66538;53.150;18.160;2024-02-28T07:10:05;25.30;;;8.40;;
77453;SDS011;66538;53.150;18.160;2024-02-28T07:12:32;21.50;;;7.40;;
77453;SDS011;66538;53.150;18.160;2024-02-28T07:14:59;17.00;;;7.20;;
77453;SDS011;66538;53.150;18.160;2024-02-28T07:17:26;23.30;;;8.40;;
77453;SDS011;66538;53.150;18.160;2024-02-28T07:19:52;24.90;;;9.30;;
77453;SDS011;66538;53.150;18.160;2024-02-28T07:22:19;21.50;;;8.60;;
77453;SDS011;66538;53.150;18.160;2024-02-28T07:24:47;21.50;;;8.20;;
77453;SDS011;66538;53.150;18.160;2024-02-28T07:27:14;25.30;;;9.50;;
77453;SDS011;66538;53.150;18.160;2024-02-28T07:29:40;24.80;;;8.70;;
77453;SDS011;66538;53.150;18.160;2024-02-28T07:32:07;25.60;;;8.90;;
77453;SDS011;66538;53.150;18.160;2024-02-28T07:34:34;23.80;;;9.70;;
77453;SDS011;66538;53.150;18.160;2024-02-28T07:37:00;34.80;;;11.80;;
77453;SDS011;66538;53.150;18.160;2024-02-28T07:39:27;30.90;;;10.00;;
77453;SDS011;66538;53.150;18.160;2024-02-28T07:41:54;27.20;;;9.00;;
77453;SDS011;66538;53.150;18.160;2024-02-28T07:44:20;28.90;;;9.80;;
77453;SDS011;66538;53.150;18.160;2024-02-28T07:46:47;26.30;;;10.40;;
77453;SDS011;66538;53.150;18.160;2024-02-28T07:49:14;24.70;;;9.40;;
77453;SDS011;66538;53.150;18.160;2024-02-28T07:51:40;27.60;;;10.50;;
77453;SDS011;66538;53.150;18.160;2024-02-28T07:54:08;27.10;;;9.90;;
77453;SDS011;66538;53.150;18.160;2024-02-28T07:56:34;25.30;;;10.00;;
77453;SDS011;66538;53.150;18.160;2024-02-28T07:59:01;22.40;;;8.80;;
77453;SDS011;66538;53.150;18.160;2024-02-28T08:01:28;24.10;;;9.30;;
77453;SDS011;66538;53.150;18.160;2024-02-28T08:03:54;24.80;;;8.80;;
77453;SDS011;66538;53.150;18.160;2024-02-28T08:06:21;27.30;;;8.80;;
77453;SDS011;66538;53.150;18.160;2024-02-28T08:08:48;21.10;;;8.30;;
77453;SDS011;66538;53.150;18.160;2024-02-28T08:11:15;24.00;;;8.20;;
77453;SDS011;66538;53.150;18.160;2024-02-28T08:13:42;26.40;;;9.00;;
77453;SDS011;66538;53.150;18.160;2024-02-28T08:16:10;26.20;;;9.00;;
77453;SDS011;66538;53.150;18.160;2024-02-28T08:18:36;26.40;;;8.50;;
77453;SDS011;66538;53.150;18.160;2024-02-28T08:21:03;23.30;;;9.40;;
77453;SDS011;66538;53.150;18.160;2024-02-28T08:23:31;26.00;;;9.70;;
77453;SDS011;66538;53.150;18.160;2024-02-28T08:25:57;25.00;;;9.40;;
77453;SDS011;66538;53.150;18.160;2024-02-28T08:28:24;24.80;;;9.20;;
77453;SDS011;66538;53.150;18.160;2024-02-28T08:30:51;22.10;;;7.60;;
77453;SDS011;66538;53.150;18.160;2024-02-28T08:33:18;20.90;;;8.30;;
77453;SDS011;66538;53.150;18.160;2024-02-28T08:35:44;24.10;;;9.40;;
77453;SDS011;66538;53.150;18.160;2024-02-28T08:38:11;22.80;;;8.50;;
77453;SDS011;66538;53.150;18.160;2024-02-28T08:40:38;27.00;;;9.80;;
77453;SDS011;66538;53.150;18.160;2024-02-28T08:43:05;21.30;;;8.90;;
77453;SDS011;66538;53.150;18.160;2024-02-28T08:45:31;24.20;;;9.60;;
77453;SDS011;66538;53.150;18.160;2024-02-28T08:47:58;20.90;;;7.90;;
77453;SDS011;66538;53.150;18.160;2024-02-28T08:50:27;22.50;;;9.30;;
77453;SDS011;66538;53.150;18.160;2024-02-28T08:52:55;22.40;;;9.10;;
77453;SDS011;66538;53.150;18.160;2024-02-28T08:55:22;22.90;;;9.40;;
77453;SDS011;66538;53.150;18.160;2024-02-28T08:57:49;24.20;;;9.20;;
77453;SDS011;66538;53.150;18.160;2024-02-28T09:00:16;21.50;;;8.50;;
77453;SDS011;66538;53.150;18.160;2024-02-28T09:02:44;22.60;;;8.40;;
77453;SDS011;66538;53.150;18.160;2024-02-28T09:05:11;22.70;;;9.30;;
77453;SDS011;66538;53.150;18.160;2024-02-28T09:07:37;17.70;;;7.80;;
77453;SDS011;66538;53.150;18.160;2024-02-28T09:10:04;25.00;;;9.60;;
77453;SDS011;66538;53.150;18.160;2024-02-28T09:12:32;23.70;;;9.10;;
77453;SDS011;66538;53.150;18.160;2024-02-28T09:14:59;22.50;;;9.10;;
77453;SDS011;66538;53.150;18.160;2024-02-28T09:17:26;19.20;;;8.10;;
77453;SDS011;66538;53.150;18.160;2024-02-28T09:19:53;16.80;;;8.20;;
77453;SDS011;66538;53.150;18.160;2024-02-28T09:22:20;17.60;;;7.90;;
77453;SDS011;66538;53.150;18.160;2024-02-28T09:24:47;20.40;;;9.80;;
77453;SDS011;66538;53.150;18.160;2024-02-28T09:27:15;18.50;;;9.10;;
77453;SDS011;66538;53.150;18.160;2024-02-28T09:29:41;20.60;;;8.80;;
77453;SDS011;66538;53.150;18.160;2024-02-28T09:32:08;21.80;;;9.10;;
77453;SDS011;66538;53.150;18.160;2024-02-28T09:34:36;18.80;;;7.90;;
77453;SDS011;66538;53.150;18.160;2024-02-28T09:37:03;16.70;;;7.10;;
77453;SDS011;66538;53.150;18.160;2024-02-28T09:39:30;18.80;;;7.70;;
77453;SDS011;66538;53.150;18.160;2024-02-28T09:41:57;16.70;;;7.00;;
77453;SDS011;66538;53.150;18.160;2024-02-28T09:44:24;20.80;;;8.00;;
77453;SDS011;66538;53.150;18.160;2024-02-28T09:46:52;21.80;;;9.90;;
77453;SDS011;66538;53.150;18.160;2024-02-28T09:49:19;21.10;;;9.20;;
77453;SDS011;66538;53.150;18.160;2024-02-28T09:51:48;17.10;;;7.20;;
77453;SDS011;66538;53.150;18.160;2024-02-28T09:54:18;17.30;;;7.20;;
77453;SDS011;66538;53.150;18.160;2024-02-28T09:56:46;17.60;;;6.90;;
77453;SDS011;66538;53.150;18.160;2024-02-28T09:59:15;19.40;;;8.30;;
77453;SDS011;66538;53.150;18.160;2024-02-28T10:01:43;22.60;;;9.60;;
77453;SDS011;66538;53.150;18.160;2024-02-28T10:04:13;17.50;;;8.00;;
77453;SDS011;66538;53.150;18.160;2024-02-28T10:06:40;15.30;;;7.40;;
77453;SDS011;66538;53.150;18.160;2024-02-28T10:09:07;16.50;;;8.00;;
77453;SDS011;66538;53.150;18.160;2024-02-28T10:11:34;23.10;;;9.00;;
77453;SDS011;66538;53.150;18.160;2024-02-28T10:14:01;19.90;;;8.80;;
77453;SDS011;66538;53.150;18.160;2024-02-28T10:16:28;17.70;;;7.90;;
77453;SDS011;66538;53.150;18.160;2024-02-28T10:18:56;24.20;;;10.10;;
77453;SDS011;66538;53.150;18.160;2024-02-28T10:21:22;18.80;;;7.90;;
77453;SDS011;66538;53.150;18.160;2024-02-28T10:23:50;19.10;;;8.30;;
77453;SDS011;66538;53.150;18.160;2024-02-28T10:26:17;18.70;;;8.00;;
77453;SDS011;66538;53.150;18.160;2024-02-28T10:28:44;17.20;;;7.80;;
77453;SDS011;66538;53.150;18.160;2024-02-28T10:31:11;18.00;;;8.00;;
77453;SDS011;66538;53.150;18.160;2024-02-28T10:33:38;20.10;;;8.30;;
77453;SDS011;66538;53.150;18.160;2024-02-28T10:36:07;17.10;;;7.70;;
77453;SDS011;66538;53.150;18.160;2024-02-28T10:38:35;20.00;;;9.40;;
77453;SDS011;66538;53.150;18.160;2024-02-28T10:41:05;21.80;;;8.30;;
77453;SDS011;66538;53.150;18.160;2024-02-28T10:43:32;20.40;;;8.70;;
77453;SDS011;66538;53.150;18.160;2024-02-28T10:48:27;15.10;;;7.10;;
77453;SDS011;66538;53.150;18.160;2024-02-28T10:50:54;15.30;;;6.70;;
77453;SDS011;66538;53.150;18.160;2024-02-28T10:53:29;18.70;;;7.50;;
77453;SDS011;66538;53.150;18.160;2024-02-28T10:56:02;22.00;;;9.40;;
77453;SDS011;66538;53.150;18.160;2024-02-28T10:58:35;17.40;;;7.60;;
77453;SDS011;66538;53.150;18.160;2024-02-28T11:01:03;19.50;;;9.30;;
77453;SDS011;66538;53.150;18.160;2024-02-28T11:03:32;20.20;;;8.80;;
77453;SDS011;66538;53.150;18.160;2024-02-28T11:05:59;22.10;;;9.40;;
77453;SDS011;66538;53.150;18.160;2024-02-28T11:08:29;17.00;;;8.30;;
77453;SDS011;66538;53.150;18.160;2024-02-28T11:11:02;18.50;;;7.70;;
77453;SDS011;66538;53.150;18.160;2024-02-28T11:13:30;21.10;;;9.10;;
77453;SDS011;66538;53.150;18.160;2024-02-28T11:16:06;14.90;;;7.50;;
77453;SDS011;66538;53.150;18.160;2024-02-28T11:18:34;22.50;;;9.20;;
77453;SDS011;66538;53.150;18.160;2024-02-28T11:21:01;20.40;;;8.60;;
77453;SDS011;66538;53.150;18.160;2024-02-28T11:26:03;18.10;;;7.00;;
77453;SDS011;66538;53.150;18.160;2024-02-28T11:28:30;18.90;;;8.30;;
77453;SDS011;66538;53.150;18.160;2024-02-28T11:30:56;24.20;;;10.20;;
77453;SDS011;66538;53.150;18.160;2024-02-28T11:33:23;22.80;;;9.80;;
77453;SDS011;66538;53.150;18.160;2024-02-28T11:35:56;18.90;;;8.60;;
77453;SDS011;66538;53.150;18.160;2024-02-28T11:38:26;17.50;;;8.60;;
77453;SDS011;66538;53.150;18.160;2024-02-28T11:40:53;17.80;;;8.80;;
77453;SDS011;66538;53.150;18.160;2024-02-28T11:43:21;18.60;;;8.00;;
77453;SDS011;66538;53.150;18.160;2024-02-28T11:45:48;20.00;;;9.10;;
77453;SDS011;66538;53.150;18.160;2024-02-28T11:48:15;19.40;;;10.00;;
77453;SDS011;66538;53.150;18.160;2024-02-28T11:50:43;17.10;;;7.90;;
77453;SDS011;66538;53.150;18.160;2024-02-28T11:53:09;18.00;;;7.90;;
77453;SDS011;66538;53.150;18.160;2024-02-28T11:55:36;16.10;;;7.20;;
77453;SDS011;66538;53.150;18.160;2024-02-28T11:58:07;19.00;;;8.50;;
77453;SDS011;66538;53.150;18.160;2024-02-28T12:00:46;15.70;;;7.90;;
77453;SDS011;66538;53.150;18.160;2024-02-28T12:03:14;20.00;;;9.20;;
77453;SDS011;66538;53.150;18.160;2024-02-28T12:05:45;13.50;;;6.60;;
77453;SDS011;66538;53.150;18.160;2024-02-28T12:08:12;19.30;;;8.60;;
77453;SDS011;66538;53.150;18.160;2024-02-28T12:10:39;16.80;;;8.10;;
77453;SDS011;66538;53.150;18.160;2024-02-28T12:13:05;17.60;;;8.10;;
77453;SDS011;66538;53.150;18.160;2024-02-28T12:15:34;19.90;;;9.50;;
77453;SDS011;66538;53.150;18.160;2024-02-28T12:18:06;15.30;;;7.70;;
77453;SDS011;66538;53.150;18.160;2024-02-28T12:20:34;17.30;;;8.10;;
77453;SDS011;66538;53.150;18.160;2024-02-28T12:23:01;16.60;;;8.80;;
77453;SDS011;66538;53.150;18.160;2024-02-28T12:25:27;17.70;;;8.70;;
77453;SDS011;66538;53.150;18.160;2024-02-28T12:27:54;17.00;;;8.30;;
77453;SDS011;66538;53.150;18.160;2024-02-28T12:30:21;18.40;;;8.90;;
77453;SDS011;66538;53.150;18.160;2024-02-28T12:32:47;19.90;;;9.10;;
77453;SDS011;66538;53.150;18.160;2024-02-28T12:35:14;20.10;;;10.00;;
77453;SDS011;66538;53.150;18.160;2024-02-28T12:37:40;21.50;;;10.20;;
77453;SDS011;66538;53.150;18.160;2024-02-28T12:40:07;16.10;;;7.50;;
77453;SDS011;66538;53.150;18.160;2024-02-28T12:42:34;15.00;;;7.40;;
77453;SDS011;66538;53.150;18.160;2024-02-28T12:45:03;16.30;;;7.40;;
77453;SDS011;66538;53.150;18.160;2024-02-28T12:47:29;18.20;;;9.10;;
77453;SDS011;66538;53.150;18.160;2024-02-28T12:49:58;17.20;;;9.40;;
77453;SDS011;66538;53.150;18.160;2024-02-28T12:52:24;17.90;;;8.40;;
77453;SDS011;66538;53.150;18.160;2024-02-28T12:54:51;17.10;;;8.90;;
77453;SDS011;66538;53.150;18.160;2024-02-28T12:57:18;15.60;;;7.60;;
77453;SDS011;66538;53.150;18.160;2024-02-28T12:59:45;17.20;;;7.90;;
77453;SDS011;66538;53.150;18.160;2024-02-28T13:02:12;19.20;;;10.10;;
77453;SDS011;66538;53.150;18.160;2024-02-28T13:04:38;20.90;;;9.60;;
77453;SDS011;66538;53.150;18.160;2024-02-28T13:07:05;15.90;;;7.40;;
77453;SDS011;66538;53.150;18.160;2024-02-28T13:12:33;21.10;;;10.00;;
77453;SDS011;66538;53.150;18.160;2024-02-28T13:15:00;20.10;;;9.50;;
77453;SDS011;66538;53.150;18.160;2024-02-28T13:17:27;17.20;;;9.10;;
77453;SDS011;66538;53.150;18.160;2024-02-28T13:19:53;17.80;;;9.00;;
77453;SDS011;66538;53.150;18.160;2024-02-28T13:22:20;20.90;;;11.30;;
77453;SDS011;66538;53.150;18.160;2024-02-28T13:24:47;18.20;;;9.20;;
77453;SDS011;66538;53.150;18.160;2024-02-28T13:27:13;15.30;;;7.70;;
77453;SDS011;66538;53.150;18.160;2024-02-28T13:29:40;16.00;;;8.20;;
77453;SDS011;66538;53.150;18.160;2024-02-28T13:32:07;20.40;;;9.50;;
77453;SDS011;66538;53.150;18.160;2024-02-28T13:34:34;18.70;;;10.20;;
77453;SDS011;66538;53.150;18.160;2024-02-28T13:37:00;18.30;;;8.30;;
77453;SDS011;66538;53.150;18.160;2024-02-28T13:39:27;20.30;;;11.60;;
77453;SDS011;66538;53.150;18.160;2024-02-28T13:41:53;18.20;;;9.50;;
77453;SDS011;66538;53.150;18.160;2024-02-28T13:44:20;15.90;;;8.30;;
77453;SDS011;66538;53.150;18.160;2024-02-28T13:46:47;13.40;;;6.20;;
77453;SDS011;66538;53.150;18.160;2024-02-28T13:49:16;20.10;;;9.50;;
77453;SDS011;66538;53.150;18.160;2024-02-28T13:51:45;17.50;;;8.90;;
77453;SDS011;66538;53.150;18.160;2024-02-28T13:54:12;14.60;;;7.50;;
77453;SDS011;66538;53.150;18.160;2024-02-28T13:56:38;14.60;;;6.60;;
77453;SDS011;66538;53.150;18.160;2024-02-28T13:59:05;17.30;;;8.60;;
77453;SDS011;66538;53.150;18.160;2024-02-28T14:01:32;16.30;;;8.70;;
77453;SDS011;66538;53.150;18.160;2024-02-28T14:03:59;12.90;;;7.00;;
77453;SDS011;66538;53.150;18.160;2024-02-28T14:06:26;15.60;;;8.50;;
77453;SDS011;66538;53.150;18.160;2024-02-28T14:08:52;14.90;;;7.70;;
77453;SDS011;66538;53.150;18.160;2024-02-28T14:11:19;17.50;;;8.70;;
77453;SDS011;66538;53.150;18.160;2024-02-28T14:13:47;14.10;;;6.70;;
77453;SDS011;66538;53.150;18.160;2024-02-28T14:16:13;14.00;;;7.70;;
77453;SDS011;66538;53.150;18.160;2024-02-28T14:18:40;16.60;;;8.20;;
77453;SDS011;66538;53.150;18.160;2024-02-28T14:21:07;14.90;;;8.20;;
77453;SDS011;66538;53.150;18.160;2024-02-28T14:23:34;14.40;;;7.50;;
77453;SDS011;66538;53.150;18.160;2024-02-28T14:26:00;16.70;;;8.10;;
77453;SDS011;66538;53.150;18.160;2024-02-28T14:28:28;15.40;;;9.30;;